Time;durP1;ratioP1;P1;durP2;ratioP2;P2;SDS_P1;SDS_P2;PMS_P1;PMS_P2;Temp;Humidity;BMP_temperature;BMP_pressure;BME280_temperature;BME280_humidity;BME280_pressure;Samples;Min_cycle;Max_cycle;Signal;HPM_P1;HPM_P2
2022/10/12 00:01:53;;;;;;;18.15;11.60;;;;;;;8.71;68.56;101091.81;1762663;81;21036;-65
2022/10/12 00:04:19;;;;;;;17.45;11.55;;;;;;;8.69;68.55;101084.87;1763095;79;21063;-65
2022/10/12 00:06:46;;;;;;;16.90;11.70;;;;;;;8.76;68.64;101093.27;1767136;79;20984;-66
2022/10/12 00:09:13;;;;;;;19.37;11.65;;;;;;;8.84;68.60;101092.38;1767158;80;21020;-66
2022/10/12 00:11:42;;;;;;;18.52;11.35;;;;;;;8.89;68.42;101085.05;1763810;79;20988;-66
2022/10/12 00:14:09;;;;;;;20.60;11.75;;;;;;;8.93;68.39;101086.19;1763535;79;21008;-66
2022/10/12 00:16:36;;;;;;;17.80;11.85;;;;;;;8.98;68.37;101089.48;1767020;80;21092;-65
2022/10/12 00:19:03;;;;;;;17.07;11.43;;;;;;;9.08;68.39;101083.88;1767489;81;21012;-66
2022/10/12 00:21:30;;;;;;;17.90;11.53;;;;;;;9.20;68.33;101084.36;1764040;79;21062;-65
2022/10/12 00:23:58;;;;;;;16.80;11.53;;;;;;;9.29;68.14;101085.63;1765963;79;21286;-67
2022/10/12 00:26:26;;;;;;;18.95;11.10;;;;;;;9.36;67.92;101076.97;1737829;82;21014;-67
2022/10/12 00:28:58;;;;;;;18.23;10.93;;;;;;;9.42;67.69;101078.70;1762130;79;21047;-66
2022/10/12 00:31:26;;;;;;;17.25;10.60;;;;;;;9.44;67.45;101083.25;1762957;81;21637;-65
2022/10/12 00:33:55;;;;;;;16.73;10.78;;;;;;;9.47;67.28;101085.97;1758637;79;21085;-65
2022/10/12 00:36:25;;;;;;;17.02;11.38;;;;;;;9.46;67.22;101087.03;1768996;79;21146;-66
2022/10/12 00:38:54;;;;;;;17.00;11.18;;;;;;;9.44;67.09;101089.92;1768222;79;21039;-66
2022/10/12 00:41:24;;;;;;;17.37;10.82;;;;;;;9.45;67.02;101088.09;1762815;79;21649;-66
2022/10/12 00:43:52;;;;;;;16.02;10.35;;;;;;;9.46;67.00;101090.50;1801439;79;21122;-66
2022/10/12 00:46:35;;;;;;;15.72;10.38;;;;;;;9.46;66.91;101087.84;1780560;79;21072;-66
2022/10/12 00:49:17;;;;;;;18.52;10.82;;;;;;;9.46;66.72;101091.84;1775792;79;21047;-66
2022/10/12 00:51:46;;;;;;;16.45;10.65;;;;;;;9.44;66.60;101095.25;1766187;80;21001;-66
2022/10/12 00:54:17;;;;;;;14.98;9.80;;;;;;;9.44;66.50;101090.45;1770174;79;21047;-66
2022/10/12 00:56:44;;;;;;;15.70;9.78;;;;;;;9.47;66.42;101087.31;1772280;79;20959;-66
2022/10/12 00:59:15;;;;;;;16.75;10.50;;;;;;;9.48;66.28;101095.09;1735495;79;21077;-65
2022/10/12 01:01:42;;;;;;;16.27;10.38;;;;;;;9.49;66.17;101092.70;1775699;79;21221;-66
2022/10/12 01:04:08;;;;;;;16.73;10.43;;;;;;;9.45;66.08;101096.89;1766521;79;21208;-67
2022/10/12 01:06:35;;;;;;;14.75;10.05;;;;;;;9.41;66.09;101097.08;1768228;79;21050;-67
2022/10/12 01:09:03;;;;;;;15.00;10.15;;;;;;;9.37;66.15;101097.24;1771443;79;21022;-66
2022/10/12 01:11:30;;;;;;;17.42;10.00;;;;;;;9.34;66.17;101100.38;1769218;79;21102;-66
2022/10/12 01:13:57;;;;;;;16.32;10.00;;;;;;;9.32;66.19;101102.48;1766827;79;21519;-66
2022/10/12 01:16:53;;;;;;;13.03;9.05;;;;;;;9.35;66.20;101099.35;1768856;79;21478;-66
2022/10/12 01:20:07;;;;;;;17.40;10.08;;;;;;;9.33;66.18;101098.23;1763776;79;21576;-65
2022/10/12 01:23:02;;;;;;;14.43;9.48;;;;;;;9.34;66.13;101103.05;1771094;80;21020;-66
2022/10/12 01:25:40;;;;;;;14.63;9.63;;;;;;;9.30;66.18;101092.57;1768466;79;21048;-65
2022/10/12 01:28:32;;;;;;;15.35;9.40;;;;;;;9.31;66.16;101092.84;1737720;81;21600;-65
2022/10/12 01:31:03;;;;;;;15.35;9.98;;;;;;;9.32;66.13;101094.48;1757936;79;21058;-66
2022/10/12 01:33:38;;;;;;;16.48;9.20;;;;;;;9.35;66.07;101094.02;1768307;79;21050;-65
2022/10/12 01:36:15;;;;;;;16.17;9.93;;;;;;;9.38;65.94;101101.55;1766388;79;21498;-66
2022/10/12 01:38:53;;;;;;;14.60;8.90;;;;;;;9.38;65.84;101101.55;1761991;79;21031;-64
2022/10/12 01:41:38;;;;;;;14.95;9.98;;;;;;;9.31;65.63;101100.34;1771242;79;21263;-65
2022/10/12 01:44:04;;;;;;;16.10;9.55;;;;;;;9.12;65.49;101101.01;1753870;79;21102;-67
2022/10/12 01:46:37;;;;;;;15.20;9.38;;;;;;;8.93;65.58;101106.98;1774190;79;21030;-65
2022/10/12 01:49:04;;;;;;;13.98;9.68;;;;;;;8.86;65.65;101112.14;1769374;80;21090;-66
2022/10/12 01:52:07;;;;;;;15.93;10.00;;;;;;;8.78;65.69;101109.81;1768620;79;21093;-67
2022/10/12 01:55:10;;;;;;;15.95;10.03;;;;;;;8.72;65.67;101113.39;1750995;79;21292;-66
2022/10/12 01:57:56;;;;;;;;;;;;;;;8.60;65.77;101116.88;1762796;79;20939;-65
2022/10/12 02:00:22;;;;;;;14.25;9.73;;;;;;;8.53;65.89;101116.70;1772883;79;20148;-67
2022/10/12 02:03:11;;;;;;;16.73;10.08;;;;;;;8.41;66.03;101117.99;1771196;80;21027;-66
2022/10/12 02:06:10;;;;;;;14.25;9.43;;;;;;;8.33;66.19;101120.97;1766630;79;20943;-65
2022/10/12 02:09:15;;;;;;;16.05;10.43;;;;;;;8.25;66.47;101122.61;1772739;80;21160;-66
2022/10/12 02:11:42;;;;;;;15.88;9.88;;;;;;;8.16;66.68;101128.77;1766691;80;21094;-66
2022/10/12 02:14:14;;;;;;;17.55;9.28;;;;;;;8.09;67.00;101134.70;1769472;81;20951;-66
2022/10/12 02:16:54;;;;;;;15.05;9.70;;;;;;;8.02;67.18;101134.80;1768326;79;21743;-66
2022/10/12 02:19:30;;;;;;;16.27;9.88;;;;;;;7.98;67.32;101132.30;1767246;79;21097;-65
2022/10/12 02:22:01;;;;;;;15.53;9.73;;;;;;;7.95;67.47;101138.87;1765420;79;21150;-66
2022/10/12 02:24:30;;;;;;;14.55;9.38;;;;;;;7.96;67.59;101135.69;1750270;79;21113;-66
2022/10/12 02:26:58;;;;;;;16.17;9.98;;;;;;;7.96;67.65;101138.34;1767945;79;21034;-66
2022/10/12 02:29:32;;;;;;;15.75;10.30;;;;;;;7.95;67.67;101142.05;1767371;79;21062;-65
2022/10/12 02:32:06;;;;;;;14.23;9.98;;;;;;;7.93;67.72;101145.45;1767060;80;21083;-66
2022/10/12 02:34:39;;;;;;;14.23;9.65;;;;;;;7.90;67.69;101151.25;1727911;81;21093;-66
2022/10/12 02:37:17;;;;;;;15.65;9.58;;;;;;;7.88;67.79;101149.31;1703988;82;21055;-65
2022/10/12 02:39:53;;;;;;;13.93;9.45;;;;;;;7.85;67.87;101147.10;1698883;82;21098;-65
2022/10/12 02:42:28;;;;;;;15.28;9.73;;;;;;;7.79;67.85;101150.66;1705018;82;21057;-66
2022/10/12 02:44:56;;;;;;;13.70;9.13;;;;;;;7.71;67.97;101159.23;1703360;82;21042;-67
2022/10/12 02:47:23;;;;;;;15.58;8.98;;;;;;;7.69;68.11;101157.83;1694779;82;21943;-65
2022/10/12 02:49:49;;;;;;;14.13;9.15;;;;;;;7.68;68.16;101154.36;1679237;84;21082;-65
2022/10/12 02:52:16;;;;;;;14.18;9.20;;;;;;;7.68;68.18;101154.36;1717107;83;21183;-65
2022/10/12 02:54:43;;;;;;;14.38;9.45;;;;;;;7.69;68.16;101156.49;1718934;83;21032;-65
2022/10/12 02:57:09;;;;;;;13.78;9.70;;;;;;;7.66;68.15;101156.42;1737779;81;21038;-66
2022/10/12 02:59:36;;;;;;;14.95;9.55;;;;;;;7.64;68.18;101157.17;1733173;81;21267;-66
2022/10/12 03:02:03;;;;;;;14.03;9.40;;;;;;;7.58;68.30;101148.75;1740206;81;21108;-65
2022/10/12 03:04:30;;;;;;;16.27;9.70;;;;;;;7.51;68.41;101155.48;1703880;82;21107;-66
2022/10/12 03:06:57;;;;;;;13.43;9.20;;;;;;;7.52;68.47;101162.92;1733705;81;21023;-66
2022/10/12 03:09:24;;;;;;;13.10;9.00;;;;;;;7.50;68.54;101164.98;1734944;81;21107;-65
2022/10/12 03:11:52;;;;;;;15.45;9.50;;;;;;;7.51;68.62;101160.79;1747022;81;21106;-65
2022/10/12 03:14:19;;;;;;;15.78;9.38;;;;;;;7.50;68.68;101157.01;1697682;82;21085;-65
2022/10/12 03:16:47;;;;;;;15.10;8.68;;;;;;;7.51;68.69;101164.78;1735274;81;21011;-66
2022/10/12 03:19:14;;;;;;;12.73;8.73;;;;;;;7.54;68.81;101166.19;1714300;81;21020;-65
2022/10/12 03:21:42;;;;;;;12.82;8.88;;;;;;;7.56;68.98;101164.10;1732746;81;21022;-66
2022/10/12 03:24:09;;;;;;;14.55;9.45;;;;;;;7.59;69.07;101163.66;1730021;81;21241;-65
2022/10/12 03:26:36;;;;;;;15.93;9.43;;;;;;;7.63;69.31;101172.00;1707455;83;21059;-65
2022/10/12 03:29:03;;;;;;;13.75;8.88;;;;;;;7.69;69.90;101173.26;1684051;83;21118;-67
2022/10/12 03:31:30;;;;;;;14.35;9.73;;;;;;;7.79;70.42;101174.06;1737468;81;22197;-66
2022/10/12 03:33:57;;;;;;;13.38;8.95;;;;;;;7.88;70.83;101176.72;1735603;81;21425;-65
2022/10/12 03:36:24;;;;;;;19.50;9.90;;;;;;;7.98;71.18;101178.84;1734948;81;21151;-65
2022/10/12 03:38:50;;;;;;;12.53;9.03;;;;;;;8.05;71.47;101186.22;1713684;81;21036;-65
2022/10/12 03:41:17;;;;;;;16.55;9.78;;;;;;;8.13;71.78;101183.27;1701238;82;21618;-65
2022/10/12 03:43:43;;;;;;;14.75;9.75;;;;;;;8.21;72.12;101190.92;1730020;81;20980;-65
2022/10/12 03:46:11;;;;;;;14.50;9.25;;;;;;;8.31;72.41;101185.58;1713887;81;21055;-65
2022/10/12 03:48:38;;;;;;;15.75;11.05;;;;;;;8.40;72.69;101180.27;1733142;81;21173;-65
2022/10/12 03:51:05;;;;;;;11.38;8.05;;;;;;;8.51;73.01;101188.80;1736245;81;21055;-65
2022/10/12 03:53:32;;;;;;;14.63;10.03;;;;;;;8.56;73.25;101178.81;1702823;84;21075;-66
2022/10/12 03:56:00;;;;;;;14.87;9.95;;;;;;;8.62;73.52;101183.20;1734938;81;21078;-66
2022/10/12 03:58:26;;;;;;;15.08;11.18;;;;;;;8.68;73.77;101176.96;1724297;81;21081;-65
2022/10/12 04:00:53;;;;;;;16.55;10.90;;;;;;;8.74;73.84;101179.23;1734581;81;21163;-66
2022/10/12 04:03:20;;;;;;;19.10;12.18;;;;;;;8.82;73.98;101184.25;1730824;81;21059;-67
2022/10/12 04:05:55;;;;;;;17.55;11.57;;;;;;;8.86;74.04;101180.08;1734247;81;21046;-66
2022/10/12 04:08:22;;;;;;;13.95;9.75;;;;;;;8.91;74.14;101192.17;1735261;81;21007;-65
2022/10/12 04:10:49;;;;;;;15.48;9.33;;;;;;;8.95;74.20;101185.36;1743850;81;21082;-65
2022/10/12 04:13:17;;;;;;;13.53;9.63;;;;;;;8.99;74.31;101188.38;1742979;81;21152;-65
2022/10/12 04:15:43;;;;;;;13.68;9.65;;;;;;;9.02;74.36;101193.24;1731599;81;21530;-68
2022/10/12 04:18:10;;;;;;;15.70;9.98;;;;;;;9.05;74.37;101193.59;1726000;81;21446;-67
2022/10/12 04:20:39;;;;;;;13.70;10.43;;;;;;;9.08;74.38;101197.13;1731346;81;21010;-66
2022/10/12 04:23:05;;;;;;;16.85;9.95;;;;;;;9.07;74.40;101200.81;1732485;82;20986;-65
2022/10/12 04:25:32;;;;;;;13.58;9.98;;;;;;;9.09;74.42;101201.94;1692265;82;21162;-65
2022/10/12 04:27:59;;;;;;;17.37;11.03;;;;;;;9.12;74.44;101203.61;1725369;81;21903;-66
2022/10/12 04:30:28;;;;;;;15.35;10.68;;;;;;;9.14;74.40;101202.84;1733153;81;21054;-66
2022/10/12 04:32:55;;;;;;;14.05;10.63;;;;;;;9.19;74.37;101204.02;1735991;81;21103;-65
2022/10/12 04:35:21;;;;;;;15.10;10.25;;;;;;;9.20;74.31;101205.63;1735071;81;21013;-67
2022/10/12 04:37:49;;;;;;;12.20;9.60;;;;;;;9.21;74.26;101210.72;1719534;82;21158;-65
2022/10/12 04:40:17;;;;;;;15.43;10.25;;;;;;;9.22;74.29;101215.55;1688526;82;21601;-67
2022/10/12 04:42:44;;;;;;;15.75;11.00;;;;;;;9.23;74.29;101213.17;1740739;81;21039;-65
2022/10/12 04:45:11;;;;;;;15.30;10.28;;;;;;;9.21;74.31;101209.91;1714619;82;21201;-66
2022/10/12 04:47:37;;;;;;;14.23;10.30;;;;;;;9.22;74.33;101220.36;1734672;81;20998;-65
2022/10/12 04:50:07;;;;;;;13.80;8.75;;;;;;;9.15;74.42;101215.14;1698771;83;21153;-66
2022/10/12 04:52:35;;;;;;;16.00;9.70;;;;;;;9.13;74.48;101221.22;1709231;82;21420;-66
2022/10/12 04:55:05;;;;;;;14.93;10.32;;;;;;;9.14;74.50;101217.50;1737750;81;21626;-66
2022/10/12 04:57:31;;;;;;;13.80;9.65;;;;;;;9.15;74.54;101223.14;1714808;82;21490;-66
2022/10/12 04:59:58;;;;;;;12.93;9.20;;;;;;;9.18;74.66;101221.03;1739741;81;21033;-65
2022/10/12 05:02:25;;;;;;;14.75;10.25;;;;;;;9.18;74.77;101223.70;1708008;82;21206;-66
2022/10/12 05:04:51;;;;;;;16.17;10.93;;;;;;;9.22;74.82;101226.22;1716120;82;21137;-65
2022/10/12 05:07:18;;;;;;;17.65;10.63;;;;;;;9.30;74.87;101231.19;1712219;82;21150;-64
2022/10/12 05:09:45;;;;;;;15.78;11.25;;;;;;;9.37;74.90;101237.21;1705288;82;21028;-64
2022/10/12 05:12:11;;;;;;;17.27;10.80;;;;;;;9.44;74.92;101235.77;1723589;82;21062;-65
2022/10/12 05:14:38;;;;;;;15.20;10.45;;;;;;;9.52;74.94;101246.09;1736274;81;22104;-65
2022/10/12 05:17:05;;;;;;;16.23;10.72;;;;;;;9.61;74.90;101238.84;1731541;81;21055;-66
2022/10/12 05:19:33;;;;;;;14.83;11.03;;;;;;;9.68;74.87;101248.05;1734912;81;21065;-65
2022/10/12 05:22:01;;;;;;;17.65;10.45;;;;;;;9.76;74.82;101246.87;1734967;82;21497;-65
2022/10/12 05:24:28;;;;;;;16.57;10.75;;;;;;;9.86;74.76;101247.08;1711465;82;21024;-66
2022/10/12 05:26:55;;;;;;;14.30;10.25;;;;;;;9.91;74.73;101247.73;1735015;81;21563;-65
2022/10/12 05:29:22;;;;;;;16.35;10.58;;;;;;;9.98;74.66;101247.88;1735465;81;21454;-67
2022/10/12 05:31:49;;;;;;;18.10;10.85;;;;;;;10.05;74.58;101247.74;1683249;82;21074;-68
2022/10/12 05:34:16;;;;;;;14.43;10.68;;;;;;;10.12;74.51;101252.42;1719566;81;21067;-67
2022/10/12 05:36:44;;;;;;;16.50;10.88;;;;;;;10.20;74.48;101252.06;1757041;81;21004;-66
2022/10/12 05:39:10;;;;;;;15.20;10.80;;;;;;;10.30;74.42;101252.81;1705111;81;21236;-65
2022/10/12 05:41:37;;;;;;;14.63;10.20;;;;;;;10.39;74.35;101252.70;1735141;81;20955;-66
2022/10/12 05:44:06;;;;;;;16.73;11.20;;;;;;;10.48;74.23;101251.27;1733153;82;21178;-65
2022/10/12 05:46:33;;;;;;;15.45;10.80;;;;;;;10.58;74.10;101255.99;1735231;81;21039;-65
2022/10/12 05:49:02;;;;;;;13.00;10.55;;;;;;;10.68;73.96;101257.51;1733604;82;21054;-65
2022/10/12 05:51:29;;;;;;;18.00;11.68;;;;;;;10.76;73.78;101252.31;1724069;81;21169;-66
2022/10/12 05:53:57;;;;;;;15.72;11.15;;;;;;;10.84;73.65;101261.27;1722155;81;21018;-65
2022/10/12 05:56:24;;;;;;;16.32;11.70;;;;;;;10.94;73.44;101264.63;1730255;82;21014;-66
2022/10/12 05:58:52;;;;;;;17.90;11.15;;;;;;;11.02;73.00;101262.39;1735632;82;21107;-68
2022/10/12 06:01:19;;;;;;;16.80;11.83;;;;;;;11.11;72.82;101266.78;1704682;84;21055;-66
2022/10/12 06:03:46;;;;;;;13.75;10.68;;;;;;;11.18;72.49;101259.41;1726790;82;21232;-67
2022/10/12 06:06:14;;;;;;;13.62;11.05;;;;;;;11.26;72.18;101271.58;1729644;82;21043;-66
2022/10/12 06:08:41;;;;;;;17.73;12.20;;;;;;;11.34;71.85;101269.81;1735452;82;20967;-67
2022/10/12 06:11:09;;;;;;;17.75;11.88;;;;;;;11.39;71.58;101275.26;1735162;82;21003;-65
2022/10/12 06:13:35;;;;;;;14.00;11.50;;;;;;;11.47;71.38;101281.52;1706089;84;21525;-65
2022/10/12 06:16:05;;;;;;;18.50;11.77;;;;;;;11.54;71.02;101285.36;1706411;82;21027;-66
2022/10/12 06:18:33;;;;;;;18.32;11.93;;;;;;;11.61;70.74;101291.88;1733957;81;21377;-67
2022/10/12 06:21:00;;;;;;;14.13;10.88;;;;;;;11.67;70.48;101293.04;1735578;82;21705;-67
2022/10/12 06:23:26;;;;;;;15.67;10.70;;;;;;;11.72;70.14;101295.00;1704107;84;21021;-66
2022/10/12 06:25:53;;;;;;;19.77;11.47;;;;;;;11.79;69.92;101298.84;1734231;82;21319;-65
2022/10/12 06:28:20;;;;;;;16.00;11.93;;;;;;;11.84;69.83;101298.39;1733229;81;21933;-64
2022/10/12 06:30:55;;;;;;;17.25;11.65;;;;;;;11.91;69.49;101296.88;1729417;81;21067;-66
2022/10/12 06:33:23;;;;;;;15.87;11.57;;;;;;;11.96;69.15;101300.97;1734537;82;21584;-67
2022/10/12 06:35:49;;;;;;;18.40;11.83;;;;;;;12.03;68.79;101312.30;1733889;81;21789;-65
2022/10/12 06:38:16;;;;;;;16.20;11.73;;;;;;;12.09;68.62;101304.62;1733970;81;21158;-66
2022/10/12 06:40:43;;;;;;;14.90;11.13;;;;;;;12.18;68.62;101305.01;1735372;81;22138;-65
2022/10/12 06:43:23;;;;;;;17.90;12.40;;;;;;;12.29;68.29;101304.06;1733118;81;21302;-65
2022/10/12 06:46:04;;;;;;;26.43;12.33;;;;;;;12.37;67.93;101311.67;1712369;82;21194;-65
2022/10/12 06:48:31;;;;;;;18.87;12.63;;;;;;;12.42;67.61;101307.69;1700749;82;21739;-67
2022/10/12 06:50:58;;;;;;;17.27;12.07;;;;;;;12.50;67.58;101310.98;1734718;81;22619;-67
2022/10/12 06:53:27;;;;;;;19.30;13.10;;;;;;;12.58;67.04;101313.23;1761312;81;21811;-65
2022/10/12 06:55:53;;;;;;;20.37;13.50;;;;;;;12.64;66.80;101310.89;1710265;82;21699;-67
2022/10/12 06:58:20;;;;;;;15.57;12.47;;;;;;;12.71;66.73;101316.86;1733364;81;21894;-66
2022/10/12 07:00:47;;;;;;;15.93;11.37;;;;;;;12.79;66.58;101315.59;1714547;81;21127;-65
2022/10/12 07:03:14;;;;;;;14.67;10.87;;;;;;;12.88;66.38;101315.41;1732991;81;21164;-64
2022/10/12 07:05:40;;;;;;;15.23;10.67;;;;;;;12.93;65.78;101314.64;1735316;81;21426;-67
2022/10/12 07:08:07;;;;;;;15.13;10.33;;;;;;;12.97;65.24;101324.63;1728216;82;21335;-66
2022/10/12 07:10:35;;;;;;;15.37;10.60;;;;;;;12.97;64.76;101332.67;1733649;81;21304;-65
2022/10/12 07:13:01;;;;;;;18.23;11.50;;;;;;;12.96;64.61;101326.20;1734393;81;21656;-66
2022/10/12 07:15:29;;;;;;;15.57;11.10;;;;;;;12.99;64.54;101333.20;1727106;81;21360;-66
2022/10/12 07:17:57;;;;;;;14.60;10.77;;;;;;;13.03;64.31;101341.55;1729912;82;21209;-65
2022/10/12 07:20:24;;;;;;;18.20;11.30;;;;;;;13.08;64.33;101332.22;1733457;81;21316;-65
2022/10/12 07:22:52;;;;;;;15.93;10.30;;;;;;;13.13;63.96;101330.94;1719160;82;21348;-67
2022/10/12 07:25:21;;;;;;;16.97;10.73;;;;;;;13.19;63.80;101327.75;1725390;82;21208;-66
2022/10/12 07:27:48;;;;;;;15.07;11.37;;;;;;;13.27;63.55;101335.37;1735117;81;21237;-64
2022/10/12 07:30:15;;;;;;;15.30;10.60;;;;;;;13.34;63.59;101334.09;1735246;82;21253;-66
2022/10/12 07:32:44;;;;;;;17.03;10.90;;;;;;;13.45;63.52;101339.53;1732874;82;21262;-65
2022/10/12 07:35:12;;;;;;;14.77;10.53;;;;;;;13.54;63.32;101336.11;1735070;82;21562;-65
2022/10/12 07:37:40;;;;;;;16.20;11.20;;;;;;;13.67;63.29;101338.89;1733677;81;21849;-65
2022/10/12 07:40:09;;;;;;;81.40;19.20;;;;;;;13.80;63.06;101340.32;1734109;82;21221;-66
2022/10/12 07:42:36;;;;;;;15.27;10.50;;;;;;;13.91;62.65;101340.64;1735108;82;21178;-65
2022/10/12 07:45:05;;;;;;;28.03;12.30;;;;;;;13.99;62.21;101339.37;1734357;82;21356;-66
2022/10/12 07:47:32;;;;;;;15.53;9.87;;;;;;;14.05;61.72;101345.05;1735416;81;21770;-67
2022/10/12 07:49:59;;;;;;;15.33;9.47;;;;;;;14.08;61.12;101345.84;1735562;82;21181;-66
2022/10/12 07:52:31;;;;;;;16.77;10.77;;;;;;;14.06;60.82;101346.11;1734727;81;21374;-64
2022/10/12 07:54:57;;;;;;;14.45;9.68;;;;;;;14.06;60.86;101342.63;1718875;81;21301;-67
2022/10/12 07:57:24;;;;;;;13.03;9.23;;;;;;;14.11;60.76;101341.28;1734714;82;21111;-65
2022/10/12 07:59:51;;;;;;;15.90;10.10;;;;;;;14.16;60.72;101341.33;1734522;82;21204;-66
2022/10/12 08:02:18;;;;;;;15.57;10.50;;;;;;;14.21;60.70;101345.36;1734473;81;21288;-67
2022/10/12 08:04:44;;;;;;;14.53;8.97;;;;;;;14.31;60.72;101340.56;1714808;81;21259;-66
2022/10/12 08:07:11;;;;;;;14.53;8.57;;;;;;;14.41;60.41;101341.98;1735221;81;21247;-64
2022/10/12 08:09:39;;;;;;;13.43;9.20;;;;;;;14.47;59.90;101345.47;1735400;81;21270;-65
2022/10/12 08:12:06;;;;;;;13.50;9.00;;;;;;;14.49;59.43;101346.83;1734790;81;21299;-66
2022/10/12 08:14:33;;;;;;;10.93;8.30;;;;;;;14.52;59.46;101358.44;1708060;82;21378;-67
2022/10/12 08:17:01;;;;;;;12.50;8.57;;;;;;;14.56;58.92;101360.06;1735019;81;21421;-66
2022/10/12 08:19:27;;;;;;;16.57;8.93;;;;;;;14.54;58.83;101349.58;1735407;82;21343;-65
2022/10/12 08:21:54;;;;;;;12.10;8.90;;;;;;;14.61;58.67;101341.78;1734719;82;21790;-66
2022/10/12 08:24:22;;;;;;;13.07;8.30;;;;;;;14.66;58.33;101335.89;1735413;82;21350;-65
2022/10/12 08:26:49;;;;;;;13.50;8.90;;;;;;;14.70;58.23;101338.86;1735232;81;21407;-66
2022/10/12 08:29:15;;;;;;;13.83;9.20;;;;;;;14.74;57.82;101345.31;1734919;82;21396;-64
2022/10/12 08:31:42;;;;;;;11.60;8.20;;;;;;;14.81;57.76;101343.71;1717894;82;21503;-66
2022/10/12 08:34:09;;;;;;;12.70;8.13;;;;;;;14.86;57.55;101346.42;1709770;81;21332;-66
2022/10/12 08:36:36;;;;;;;14.07;8.67;;;;;;;14.88;57.33;101336.22;1766200;81;21325;-64
2022/10/12 08:39:05;;;;;;;10.90;8.67;;;;;;;14.94;57.25;101340.54;1707958;82;21450;-66
2022/10/12 08:42:03;;;;;;;14.67;8.10;;;;;;;15.00;57.00;101338.09;1727456;82;21362;-66
2022/10/12 08:45:00;;;;;;;12.03;8.30;;;;;;;15.04;56.75;101346.44;1735996;82;22265;-66
2022/10/12 08:47:41;;;;;;;11.90;8.20;;;;;;;15.07;56.48;101349.44;1727679;81;21517;-65
2022/10/12 08:50:35;;;;;;;11.80;8.60;;;;;;;15.12;56.58;101348.08;1708602;81;21404;-66
2022/10/12 08:53:17;;;;;;;13.10;9.00;;;;;;;15.18;56.43;101338.94;1718566;81;21534;-66
2022/10/12 08:55:44;;;;;;;13.97;8.23;;;;;;;15.24;56.00;101343.25;1708709;81;22235;-67
2022/10/12 08:58:19;;;;;;;13.27;8.20;;;;;;;15.30;55.75;101333.30;1705879;82;22051;-67
2022/10/12 09:00:50;;;;;;;13.20;8.10;;;;;;;15.36;55.19;101332.73;1734648;82;21689;-68
2022/10/12 09:03:57;;;;;;;10.57;8.20;;;;;;;15.52;55.00;101343.77;1735835;82;21453;-65
2022/10/12 09:06:46;;;;;;;11.20;7.07;;;;;;;15.63;55.04;101344.05;1725863;82;21477;-66
2022/10/12 09:09:22;;;;;;;11.13;6.77;;;;;;;15.68;54.03;101339.20;1705480;84;21773;-66
2022/10/12 09:12:17;;;;;;;13.03;7.13;;;;;;;15.68;54.03;101339.20;1735506;82;22250;-67
2022/10/12 09:14:43;;;;;;;10.97;6.77;;;;;;;15.75;53.34;101330.84;1735334;82;21674;-68
2022/10/12 09:17:37;;;;;;;10.03;6.17;;;;;;;15.77;53.29;101332.20;1728346;81;21523;-65
2022/10/12 09:20:18;;;;;;;10.93;6.30;;;;;;;15.77;53.29;101332.20;1707965;82;21730;-67
2022/10/12 09:22:49;;;;;;;9.63;5.87;;;;;;;15.82;52.81;101330.02;1705608;84;22250;-65
2022/10/12 09:25:17;;;;;;;24.27;8.13;;;;;;;15.89;52.75;101333.23;1706207;82;22224;-66
2022/10/12 09:27:46;;;;;;;9.33;5.70;;;;;;;16.00;52.32;101318.66;1708408;81;21737;-65
2022/10/12 09:30:16;;;;;;;36.93;9.20;;;;;;;16.07;52.37;101329.16;1708333;81;21745;-64
2022/10/12 09:32:54;;;;;;;11.47;5.67;;;;;;;16.15;51.81;101337.45;1709288;81;21770;-66
2022/10/12 09:35:21;;;;;;;12.10;5.57;;;;;;;16.24;51.00;101334.20;1686481;85;21750;-65
2022/10/12 09:37:51;;;;;;;12.10;5.53;;;;;;;16.26;50.09;101322.63;1713138;82;21776;-65
2022/10/12 09:40:25;;;;;;;7.20;3.70;;;;;;;16.30;50.31;101325.83;1735496;82;21630;-65
2022/10/12 09:42:53;;;;;;;6.43;3.53;;;;;;;16.39;49.32;101324.72;1721379;82;22304;-67
2022/10/12 09:45:21;;;;;;;9.23;3.90;;;;;;;16.48;48.19;101320.33;1708251;81;22214;-66
2022/10/12 09:48:20;;;;;;;7.80;4.00;;;;;;;16.52;47.50;101333.55;1706230;84;21657;-67
2022/10/12 09:50:57;;;;;;;7.20;3.43;;;;;;;16.53;47.50;101331.11;1708893;82;21959;-67
2022/10/12 09:53:48;;;;;;;7.07;3.43;;;;;;;16.57;46.63;101332.70;1736033;82;21688;-67
2022/10/12 09:56:40;;;;;;;6.57;3.50;;;;;;;16.59;46.43;101325.95;1735595;82;21694;-65
2022/10/12 09:59:38;;;;;;;8.63;3.53;;;;;;;16.69;47.05;101328.34;1706934;82;21730;-65
2022/10/12 10:02:20;;;;;;;8.93;3.53;;;;;;;16.81;47.47;101325.59;1745771;81;22258;-65
2022/10/12 10:04:49;;;;;;;11.23;3.90;;;;;;;16.94;46.16;101324.13;1730783;81;21726;-66
2022/10/12 10:07:34;;;;;;;6.80;3.33;;;;;;;16.96;45.76;101327.91;1734312;81;22330;-65
2022/10/12 10:10:22;;;;;;;8.80;3.93;;;;;;;16.99;45.91;101320.06;1721151;82;21832;-66
2022/10/12 10:13:00;;;;;;;6.30;3.70;;;;;;;16.99;45.91;101320.06;1707852;81;21073;-66
2022/10/12 10:15:37;;;;;;;10.73;3.50;;;;;;;17.06;46.27;101311.09;1735320;82;21679;-68
2022/10/12 10:18:14;;;;;;;8.23;3.30;;;;;;;17.11;44.94;101313.77;1709816;81;21841;-65
2022/10/12 10:20:52;;;;;;;7.13;3.00;;;;;;;17.16;44.01;101295.91;1704058;84;22227;-65
2022/10/12 10:23:32;;;;;;;9.97;3.10;;;;;;;17.15;42.61;101295.11;1735242;82;21014;-67
2022/10/12 10:26:13;;;;;;;10.33;3.17;;;;;;;17.15;42.76;101318.05;1735990;82;21509;-67
2022/10/12 10:28:42;;;;;;;8.43;3.30;;;;;;;17.23;42.80;101303.14;1736111;82;21050;-67
2022/10/12 10:31:22;;;;;;;11.60;3.17;;;;;;;17.33;43.44;101308.44;1736052;82;21130;-69
2022/10/12 10:34:20;;;;;;;8.23;2.93;;;;;;;17.45;43.36;101309.43;1705396;84;20980;-68
2022/10/12 10:36:59;;;;;;;6.87;2.83;;;;;;;17.53;42.13;101305.55;1705781;84;21132;-65
2022/10/12 10:39:26;;;;;;;7.77;3.17;;;;;;;17.39;41.46;101295.16;1735024;82;21057;-68
2022/10/12 10:41:54;;;;;;;5.87;2.60;;;;;;;17.29;41.76;101311.45;1717123;83;20968;-68
2022/10/12 10:44:28;;;;;;;5.97;2.50;;;;;;;17.28;41.45;101299.05;1736261;82;21160;-66
2022/10/12 10:47:01;;;;;;;7.77;2.57;;;;;;;17.33;41.95;101304.39;1711576;82;21422;-68
2022/10/12 10:49:39;;;;;;;8.60;2.60;;;;;;;17.45;41.25;101308.88;1736362;82;21557;-66
2022/10/12 10:52:25;;;;;;;7.17;2.80;;;;;;;17.56;40.02;101314.98;1735333;81;21043;-66
2022/10/12 10:55:18;;;;;;;8.27;2.77;;;;;;;17.55;39.99;101310.68;1735365;82;21034;-65
2022/10/12 10:58:04;;;;;;;6.30;2.40;;;;;;;17.42;40.50;101310.80;1726257;81;21219;-65
2022/10/12 11:00:33;;;;;;;7.93;2.50;;;;;;;17.24;40.97;101312.31;1705650;84;21093;-65
2022/10/12 11:03:26;;;;;;;9.23;2.60;;;;;;;17.10;41.64;101313.48;1705955;84;21028;-66
2022/10/12 11:06:01;;;;;;;8.77;2.87;;;;;;;17.06;41.31;101308.95;1708525;81;20988;-66
2022/10/12 11:08:29;;;;;;;8.20;3.03;;;;;;;17.08;41.37;101306.78;1669439;84;21056;-67
2022/10/12 11:11:15;;;;;;;8.97;2.77;;;;;;;17.22;40.77;101319.88;1705895;84;21142;-66
2022/10/12 11:13:53;;;;;;;9.07;3.47;;;;;;;17.30;39.78;101311.16;1711333;81;21551;-65
2022/10/12 11:16:45;;;;;;;7.93;2.90;;;;;;;17.33;40.00;101305.74;1705923;84;21036;-67
2022/10/12 11:19:41;;;;;;;10.27;2.93;;;;;;;17.31;40.11;101306.59;1708646;81;21029;-66
2022/10/12 11:22:39;;;;;;;8.60;2.60;;;;;;;17.29;40.82;101308.20;1709307;81;20979;-66
2022/10/12 11:25:29;;;;;;;6.73;2.27;;;;;;;17.39;40.07;101312.71;1735205;81;21902;-65
2022/10/12 11:27:56;;;;;;;8.33;2.60;;;;;;;17.55;39.65;101302.02;1735235;82;21058;-66
2022/10/12 11:30:25;;;;;;;6.10;2.60;;;;;;;17.71;39.50;101312.69;1721908;81;21543;-65
2022/10/12 11:33:06;;;;;;;8.87;2.77;;;;;;;17.72;38.71;101318.34;1708612;82;21084;-65
2022/10/12 11:35:43;;;;;;;7.73;2.63;;;;;;;17.65;39.04;101314.63;1682494;84;21566;-67
2022/10/12 11:38:37;;;;;;;7.83;2.60;;;;;;;17.59;38.88;101311.71;1729269;81;21162;-66
2022/10/12 11:41:15;;;;;;;9.33;2.73;;;;;;;17.48;39.16;101310.21;1729724;82;21077;-66
2022/10/12 11:43:56;;;;;;;7.80;2.60;;;;;;;17.37;39.61;101308.13;1733675;81;21089;-66